Terminal Aerodrome Forecast
Issued by NWS Denver/Boulder, CO

Home | Current Version | Previous Version | Text Only | Print | Product List | Glossary On
Versions: 1 2 3 4 5 6 7 8 9 10 11 12 13 14 15 16 17 18 19 20 21 22 23 24 25 26 27 28 29 30 31 32 33 34 35 36 37 38 39 40 41 42 43 44 45 46 47 48 49 50
178
FTUS45 KBOU 212303 AAE
TAFDEN
TAF AMD
KDEN 212303Z 2123/2224 33015G25KT P6SM VCSH SCT060 BKN080
      TEMPO 2123/2124 35025G38KT BKN060
     FM220000 36014KT P6SM VCTS SCT060CB BKN070
      TEMPO 2200/2202 -SHRA BKN050
     FM220200 32011KT P6SM VCSH SCT060 BKN090
     FM220600 24007KT P6SM SCT070 BKN110
     FM221000 21008KT P6SM FEW080 SCT140
     FM221800 33011KT P6SM BKN180
     FM222200 02017G27KT P6SM VCSH SCT025 BKN050=

USA.gov is the U.S. government's official web portal to all federal, state and local government web resources and services.